sensor_id;sensor_type;location;lat;lon;timestamp;P1;durP1;ratioP1;P2;durP2;ratioP2
67344;SDS011;54230;52.402;6.276;2024-02-04T00:00:00;21.1;;;7.5;;
67344;SDS011;54230;52.402;6.276;2024-02-04T00:05:00;21.3;;;7.4;;
67344;SDS011;54230;52.402;6.276;2024-02-04T00:10:00;25.4;;;7.9;;
67344;SDS011;54230;52.402;6.276;2024-02-04T00:15:00;23.3;;;8.2;;
67344;SDS011;54230;52.402;6.276;2024-02-04T00:20:00;26.8;;;8.8;;
67344;SDS011;54230;52.402;6.276;2024-02-04T00:25:00;24.6;;;9.3;;
67344;SDS011;54230;52.402;6.276;2024-02-04T00:30:00;29.7;;;10.2;;
67344;SDS011;54230;52.402;6.276;2024-02-04T00:35:00;28.5;;;10.1;;
67344;SDS011;54230;52.402;6.276;2024-02-04T00:40:00;28.1;;;9.6;;
67344;SDS011;54230;52.402;6.276;2024-02-04T00:45:00;27.7;;;10.8;;
67344;SDS011;54230;52.402;6.276;2024-02-04T00:50:00;30.5;;;11.3;;
67344;SDS011;54230;52.402;6.276;2024-02-04T00:55:00;29.4;;;10.4;;
67344;SDS011;54230;52.402;6.276;2024-02-04T01:00:00;26.1;;;9.9;;
67344;SDS011;54230;52.402;6.276;2024-02-04T01:05:00;28.8;;;10.6;;
67344;SDS011;54230;52.402;6.276;2024-02-04T01:10:00;26.3;;;9.3;;
67344;SDS011;54230;52.402;6.276;2024-02-04T01:15:00;23.5;;;9.1;;
67344;SDS011;54230;52.402;6.276;2024-02-04T01:20:00;24.5;;;9.1;;
67344;SDS011;54230;52.402;6.276;2024-02-04T01:25:00;20.5;;;7.6;;
67344;SDS011;54230;52.402;6.276;2024-02-04T01:30:00;21.8;;;7.9;;
67344;SDS011;54230;52.402;6.276;2024-02-04T01:35:00;18.2;;;7.5;;
67344;SDS011;54230;52.402;6.276;2024-02-04T01:40:00;22.9;;;7.9;;
67344;SDS011;54230;52.402;6.276;2024-02-04T01:45:00;21.2;;;8.2;;
67344;SDS011;54230;52.402;6.276;2024-02-04T01:50:00;22.4;;;8.8;;
67344;SDS011;54230;52.402;6.276;2024-02-04T01:55:00;21.7;;;8.4;;
67344;SDS011;54230;52.402;6.276;2024-02-04T02:00:01;23.6;;;9.1;;
67344;SDS011;54230;52.402;6.276;2024-02-04T02:05:00;17.6;;;8.0;;
67344;SDS011;54230;52.402;6.276;2024-02-04T02:10:00;23.5;;;8.1;;
67344;SDS011;54230;52.402;6.276;2024-02-04T02:15:02;23.0;;;8.2;;
67344;SDS011;54230;52.402;6.276;2024-02-04T02:20:02;21.2;;;7.5;;
67344;SDS011;54230;52.402;6.276;2024-02-04T02:25:00;16.0;;;6.8;;
67344;SDS011;54230;52.402;6.276;2024-02-04T02:30:00;20.7;;;6.3;;
67344;SDS011;54230;52.402;6.276;2024-02-04T02:35:00;14.7;;;6.1;;
67344;SDS011;54230;52.402;6.276;2024-02-04T02:40:01;18.3;;;6.4;;
67344;SDS011;54230;52.402;6.276;2024-02-04T02:45:00;14.2;;;6.6;;
67344;SDS011;54230;52.402;6.276;2024-02-04T02:50:00;18.2;;;6.1;;
67344;SDS011;54230;52.402;6.276;2024-02-04T02:55:00;16.7;;;6.1;;
67344;SDS011;54230;52.402;6.276;2024-02-04T03:00:00;19.0;;;6.1;;
67344;SDS011;54230;52.402;6.276;2024-02-04T03:05:00;14.9;;;5.7;;
67344;SDS011;54230;52.402;6.276;2024-02-04T03:10:00;14.2;;;5.4;;
67344;SDS011;54230;52.402;6.276;2024-02-04T03:15:00;16.5;;;5.7;;
67344;SDS011;54230;52.402;6.276;2024-02-04T03:20:00;18.4;;;6.3;;
67344;SDS011;54230;52.402;6.276;2024-02-04T03:25:00;15.9;;;5.9;;
67344;SDS011;54230;52.402;6.276;2024-02-04T03:30:00;14.5;;;5.9;;
67344;SDS011;54230;52.402;6.276;2024-02-04T03:35:00;17.4;;;5.3;;
67344;SDS011;54230;52.402;6.276;2024-02-04T03:40:00;16.9;;;4.9;;
67344;SDS011;54230;52.402;6.276;2024-02-04T03:45:00;14.6;;;4.0;;
67344;SDS011;54230;52.402;6.276;2024-02-04T03:50:00;12.3;;;3.8;;
67344;SDS011;54230;52.402;6.276;2024-02-04T03:55:00;13.6;;;3.7;;
67344;SDS011;54230;52.402;6.276;2024-02-04T04:00:00;12.3;;;3.4;;
67344;SDS011;54230;52.402;6.276;2024-02-04T04:05:00;13.4;;;3.5;;
67344;SDS011;54230;52.402;6.276;2024-02-04T04:10:00;12.4;;;4.0;;
67344;SDS011;54230;52.402;6.276;2024-02-04T04:15:00;16.6;;;4.6;;
67344;SDS011;54230;52.402;6.276;2024-02-04T04:20:00;15.9;;;4.7;;
67344;SDS011;54230;52.402;6.276;2024-02-04T04:25:00;12.0;;;4.2;;
67344;SDS011;54230;52.402;6.276;2024-02-04T04:30:00;15.5;;;4.4;;
67344;SDS011;54230;52.402;6.276;2024-02-04T04:35:00;10.5;;;3.5;;
67344;SDS011;54230;52.402;6.276;2024-02-04T04:40:00;14.0;;;3.2;;
67344;SDS011;54230;52.402;6.276;2024-02-04T04:45:00;11.2;;;3.0;;
67344;SDS011;54230;52.402;6.276;2024-02-04T04:50:00;8.9;;;2.7;;
67344;SDS011;54230;52.402;6.276;2024-02-04T04:55:00;8.9;;;2.5;;
67344;SDS011;54230;52.402;6.276;2024-02-04T05:00:00;9.5;;;2.2;;
67344;SDS011;54230;52.402;6.276;2024-02-04T05:05:00;8.8;;;2.6;;
67344;SDS011;54230;52.402;6.276;2024-02-04T05:10:00;10.4;;;2.4;;
67344;SDS011;54230;52.402;6.276;2024-02-04T05:15:00;10.3;;;2.3;;
67344;SDS011;54230;52.402;6.276;2024-02-04T05:20:00;10.5;;;2.3;;
67344;SDS011;54230;52.402;6.276;2024-02-04T05:25:00;7.4;;;2.2;;
67344;SDS011;54230;52.402;6.276;2024-02-04T05:30:01;9.6;;;2.0;;
67344;SDS011;54230;52.402;6.276;2024-02-04T05:35:00;6.7;;;1.9;;
67344;SDS011;54230;52.402;6.276;2024-02-04T05:40:00;9.3;;;2.2;;
67344;SDS011;54230;52.402;6.276;2024-02-04T05:45:00;8.5;;;2.0;;
67344;SDS011;54230;52.402;6.276;2024-02-04T05:50:00;8.0;;;1.8;;
67344;SDS011;54230;52.402;6.276;2024-02-04T05:55:00;12.2;;;2.0;;
67344;SDS011;54230;52.402;6.276;2024-02-04T06:00:00;7.9;;;1.8;;
67344;SDS011;54230;52.402;6.276;2024-02-04T06:05:00;8.2;;;2.0;;
67344;SDS011;54230;52.402;6.276;2024-02-04T06:10:00;10.4;;;1.8;;
67344;SDS011;54230;52.402;6.276;2024-02-04T06:15:00;7.2;;;1.8;;
67344;SDS011;54230;52.402;6.276;2024-02-04T06:20:00;9.7;;;2.0;;
67344;SDS011;54230;52.402;6.276;2024-02-04T06:25:00;12.0;;;2.1;;
67344;SDS011;54230;52.402;6.276;2024-02-04T06:30:00;8.4;;;1.7;;
67344;SDS011;54230;52.402;6.276;2024-02-04T06:35:00;10.6;;;2.2;;
67344;SDS011;54230;52.402;6.276;2024-02-04T06:40:00;10.2;;;2.2;;
67344;SDS011;54230;52.402;6.276;2024-02-04T06:45:00;11.5;;;2.4;;
67344;SDS011;54230;52.402;6.276;2024-02-04T06:50:00;9.1;;;2.2;;
67344;SDS011;54230;52.402;6.276;2024-02-04T06:55:00;9.0;;;1.9;;
67344;SDS011;54230;52.402;6.276;2024-02-04T07:00:00;10.6;;;2.0;;
67344;SDS011;54230;52.402;6.276;2024-02-04T07:05:00;10.2;;;2.1;;
67344;SDS011;54230;52.402;6.276;2024-02-04T07:10:00;9.1;;;2.4;;
67344;SDS011;54230;52.402;6.276;2024-02-04T07:15:00;10.9;;;2.0;;
67344;SDS011;54230;52.402;6.276;2024-02-04T07:20:00;11.5;;;2.5;;
67344;SDS011;54230;52.402;6.276;2024-02-04T07:25:00;8.2;;;1.8;;
67344;SDS011;54230;52.402;6.276;2024-02-04T07:30:00;10.3;;;2.3;;
67344;SDS011;54230;52.402;6.276;2024-02-04T07:35:00;10.7;;;2.1;;
67344;SDS011;54230;52.402;6.276;2024-02-04T07:40:00;10.6;;;2.3;;
67344;SDS011;54230;52.402;6.276;2024-02-04T07:45:00;10.0;;;2.5;;
67344;SDS011;54230;52.402;6.276;2024-02-04T07:50:00;9.7;;;2.7;;
67344;SDS011;54230;52.402;6.276;2024-02-04T07:55:00;12.4;;;2.7;;
67344;SDS011;54230;52.402;6.276;2024-02-04T08:00:00;11.5;;;2.7;;
67344;SDS011;54230;52.402;6.276;2024-02-04T08:05:00;8.4;;;2.4;;
67344;SDS011;54230;52.402;6.276;2024-02-04T08:10:00;8.3;;;2.7;;
67344;SDS011;54230;52.402;6.276;2024-02-04T08:15:00;8.6;;;2.7;;
67344;SDS011;54230;52.402;6.276;2024-02-04T08:20:00;9.8;;;2.5;;
67344;SDS011;54230;52.402;6.276;2024-02-04T08:25:00;5.8;;;2.1;;
67344;SDS011;54230;52.402;6.276;2024-02-04T08:30:00;6.2;;;2.0;;
67344;SDS011;54230;52.402;6.276;2024-02-04T08:35:00;8.4;;;2.2;;
67344;SDS011;54230;52.402;6.276;2024-02-04T08:40:00;8.0;;;2.3;;
67344;SDS011;54230;52.402;6.276;2024-02-04T08:45:00;4.7;;;1.9;;
67344;SDS011;54230;52.402;6.276;2024-02-04T08:50:00;7.6;;;2.2;;
67344;SDS011;54230;52.402;6.276;2024-02-04T08:55:00;8.5;;;2.3;;
67344;SDS011;54230;52.402;6.276;2024-02-04T09:00:00;6.1;;;2.2;;
67344;SDS011;54230;52.402;6.276;2024-02-04T09:05:00;6.6;;;2.5;;
67344;SDS011;54230;52.402;6.276;2024-02-04T09:10:00;6.8;;;2.6;;
67344;SDS011;54230;52.402;6.276;2024-02-04T09:15:00;6.4;;;2.5;;
67344;SDS011;54230;52.402;6.276;2024-02-04T09:20:00;7.2;;;3.1;;
67344;SDS011;54230;52.402;6.276;2024-02-04T09:25:00;8.9;;;3.7;;
67344;SDS011;54230;52.402;6.276;2024-02-04T09:30:00;11.7;;;4.2;;
67344;SDS011;54230;52.402;6.276;2024-02-04T09:35:00;13.0;;;4.2;;
67344;SDS011;54230;52.402;6.276;2024-02-04T09:40:00;12.6;;;4.6;;
67344;SDS011;54230;52.402;6.276;2024-02-04T09:45:00;12.8;;;4.7;;
67344;SDS011;54230;52.402;6.276;2024-02-04T09:50:00;9.9;;;5.0;;
67344;SDS011;54230;52.402;6.276;2024-02-04T09:55:01;11.7;;;4.9;;
67344;SDS011;54230;52.402;6.276;2024-02-04T10:00:00;11.1;;;4.8;;
67344;SDS011;54230;52.402;6.276;2024-02-04T10:05:00;11.6;;;4.7;;
67344;SDS011;54230;52.402;6.276;2024-02-04T10:10:00;9.4;;;4.0;;
67344;SDS011;54230;52.402;6.276;2024-02-04T10:15:00;12.0;;;4.3;;
67344;SDS011;54230;52.402;6.276;2024-02-04T10:20:00;8.9;;;3.5;;
67344;SDS011;54230;52.402;6.276;2024-02-04T10:25:07;7.6;;;3.4;;
67344;SDS011;54230;52.402;6.276;2024-02-04T10:30:00;7.8;;;3.6;;
67344;SDS011;54230;52.402;6.276;2024-02-04T10:35:00;8.2;;;3.4;;
67344;SDS011;54230;52.402;6.276;2024-02-04T10:40:00;7.6;;;3.1;;
67344;SDS011;54230;52.402;6.276;2024-02-04T10:45:00;8.9;;;3.2;;
67344;SDS011;54230;52.402;6.276;2024-02-04T10:50:00;7.5;;;2.9;;
67344;SDS011;54230;52.402;6.276;2024-02-04T10:55:00;7.5;;;3.1;;
67344;SDS011;54230;52.402;6.276;2024-02-04T11:00:00;6.7;;;3.2;;
67344;SDS011;54230;52.402;6.276;2024-02-04T11:05:00;6.7;;;3.1;;
67344;SDS011;54230;52.402;6.276;2024-02-04T11:10:00;9.2;;;2.9;;
67344;SDS011;54230;52.402;6.276;2024-02-04T11:15:01;6.9;;;2.7;;
67344;SDS011;54230;52.402;6.276;2024-02-04T11:20:04;4.7;;;2.1;;
67344;SDS011;54230;52.402;6.276;2024-02-04T11:25:05;5.4;;;2.2;;
67344;SDS011;54230;52.402;6.276;2024-02-04T11:30:00;5.0;;;1.8;;
67344;SDS011;54230;52.402;6.276;2024-02-04T11:35:00;5.1;;;1.9;;
67344;SDS011;54230;52.402;6.276;2024-02-04T11:40:00;6.4;;;1.9;;
67344;SDS011;54230;52.402;6.276;2024-02-04T11:45:07;4.3;;;1.9;;
67344;SDS011;54230;52.402;6.276;2024-02-04T11:50:00;3.9;;;1.8;;
67344;SDS011;54230;52.402;6.276;2024-02-04T11:55:00;4.6;;;1.7;;
67344;SDS011;54230;52.402;6.276;2024-02-04T12:00:00;6.5;;;1.9;;
67344;SDS011;54230;52.402;6.276;2024-02-04T12:05:00;4.9;;;1.8;;
67344;SDS011;54230;52.402;6.276;2024-02-04T12:10:00;5.9;;;1.9;;
67344;SDS011;54230;52.402;6.276;2024-02-04T12:15:00;4.5;;;1.7;;
67344;SDS011;54230;52.402;6.276;2024-02-04T12:20:00;5.0;;;1.5;;
67344;SDS011;54230;52.402;6.276;2024-02-04T12:25:00;5.8;;;1.8;;
67344;SDS011;54230;52.402;6.276;2024-02-04T12:30:00;6.6;;;2.4;;
67344;SDS011;54230;52.402;6.276;2024-02-04T12:35:00;5.6;;;2.5;;
67344;SDS011;54230;52.402;6.276;2024-02-04T12:40:00;6.1;;;2.5;;
67344;SDS011;54230;52.402;6.276;2024-02-04T12:45:00;6.6;;;2.2;;
67344;SDS011;54230;52.402;6.276;2024-02-04T12:50:00;5.1;;;1.9;;
67344;SDS011;54230;52.402;6.276;2024-02-04T12:55:00;5.9;;;2.0;;
67344;SDS011;54230;52.402;6.276;2024-02-04T13:00:03;8.0;;;2.2;;
67344;SDS011;54230;52.402;6.276;2024-02-04T13:05:00;5.8;;;2.0;;
67344;SDS011;54230;52.402;6.276;2024-02-04T13:10:00;6.3;;;1.9;;
67344;SDS011;54230;52.402;6.276;2024-02-04T13:15:00;4.6;;;1.8;;
67344;SDS011;54230;52.402;6.276;2024-02-04T13:20:00;5.7;;;2.1;;
67344;SDS011;54230;52.402;6.276;2024-02-04T13:25:00;6.2;;;2.1;;
67344;SDS011;54230;52.402;6.276;2024-02-04T13:30:00;4.5;;;2.0;;
67344;SDS011;54230;52.402;6.276;2024-02-04T13:35:00;5.4;;;2.0;;
67344;SDS011;54230;52.402;6.276;2024-02-04T13:40:00;4.1;;;1.9;;
67344;SDS011;54230;52.402;6.276;2024-02-04T13:45:00;3.9;;;1.8;;
67344;SDS011;54230;52.402;6.276;2024-02-04T13:50:00;3.5;;;1.6;;
67344;SDS011;54230;52.402;6.276;2024-02-04T13:55:00;3.9;;;1.5;;
67344;SDS011;54230;52.402;6.276;2024-02-04T14:00:00;4.6;;;1.6;;
67344;SDS011;54230;52.402;6.276;2024-02-04T14:05:00;3.1;;;1.6;;
67344;SDS011;54230;52.402;6.276;2024-02-04T14:10:00;2.4;;;1.5;;
67344;SDS011;54230;52.402;6.276;2024-02-04T14:15:00;3.4;;;1.6;;
67344;SDS011;54230;52.402;6.276;2024-02-04T14:20:00;2.9;;;1.8;;
67344;SDS011;54230;52.402;6.276;2024-02-04T14:25:00;4.7;;;2.1;;
67344;SDS011;54230;52.402;6.276;2024-02-04T14:30:00;5.5;;;2.4;;
67344;SDS011;54230;52.402;6.276;2024-02-04T14:35:00;5.7;;;2.3;;
67344;SDS011;54230;52.402;6.276;2024-02-04T14:40:00;5.6;;;2.7;;
67344;SDS011;54230;52.402;6.276;2024-02-04T14:45:00;7.2;;;2.9;;
67344;SDS011;54230;52.402;6.276;2024-02-04T14:50:00;5.4;;;3.0;;
67344;SDS011;54230;52.402;6.276;2024-02-04T14:55:00;8.2;;;3.1;;
67344;SDS011;54230;52.402;6.276;2024-02-04T15:00:00;9.6;;;3.2;;
67344;SDS011;54230;52.402;6.276;2024-02-04T15:05:00;11.2;;;3.5;;
67344;SDS011;54230;52.402;6.276;2024-02-04T15:10:00;10.3;;;3.8;;
67344;SDS011;54230;52.402;6.276;2024-02-04T15:15:00;9.5;;;3.5;;
67344;SDS011;54230;52.402;6.276;2024-02-04T15:20:00;11.0;;;3.4;;
67344;SDS011;54230;52.402;6.276;2024-02-04T15:25:00;12.6;;;3.7;;
67344;SDS011;54230;52.402;6.276;2024-02-04T15:30:00;12.3;;;3.6;;
67344;SDS011;54230;52.402;6.276;2024-02-04T15:35:00;11.4;;;3.8;;
67344;SDS011;54230;52.402;6.276;2024-02-04T15:40:00;13.4;;;4.2;;
67344;SDS011;54230;52.402;6.276;2024-02-04T15:45:00;10.1;;;3.7;;
67344;SDS011;54230;52.402;6.276;2024-02-04T15:50:00;10.6;;;4.0;;
67344;SDS011;54230;52.402;6.276;2024-02-04T15:55:00;10.5;;;4.1;;
67344;SDS011;54230;52.402;6.276;2024-02-04T16:00:01;8.8;;;3.6;;
67344;SDS011;54230;52.402;6.276;2024-02-04T16:05:00;10.2;;;4.0;;
67344;SDS011;54230;52.402;6.276;2024-02-04T16:10:00;13.5;;;4.2;;
67344;SDS011;54230;52.402;6.276;2024-02-04T16:15:00;12.1;;;4.3;;
67344;SDS011;54230;52.402;6.276;2024-02-04T16:20:00;14.7;;;3.8;;
67344;SDS011;54230;52.402;6.276;2024-02-04T16:25:00;13.6;;;4.5;;
67344;SDS011;54230;52.402;6.276;2024-02-04T16:30:00;12.5;;;4.4;;
67344;SDS011;54230;52.402;6.276;2024-02-04T16:35:00;16.8;;;4.6;;
67344;SDS011;54230;52.402;6.276;2024-02-04T16:40:00;20.8;;;5.1;;
67344;SDS011;54230;52.402;6.276;2024-02-04T16:45:00;15.0;;;5.5;;
67344;SDS011;54230;52.402;6.276;2024-02-04T16:50:00;16.7;;;5.9;;
67344;SDS011;54230;52.402;6.276;2024-02-04T16:55:00;20.3;;;7.1;;
67344;SDS011;54230;52.402;6.276;2024-02-04T17:00:00;14.2;;;6.2;;
67344;SDS011;54230;52.402;6.276;2024-02-04T17:05:00;19.3;;;7.1;;
67344;SDS011;54230;52.402;6.276;2024-02-04T17:10:00;15.2;;;6.5;;
67344;SDS011;54230;52.402;6.276;2024-02-04T17:15:00;19.8;;;6.8;;
67344;SDS011;54230;52.402;6.276;2024-02-04T17:20:02;20.3;;;7.3;;
67344;SDS011;54230;52.402;6.276;2024-02-04T17:25:02;14.3;;;6.3;;
67344;SDS011;54230;52.402;6.276;2024-02-04T17:30:00;21.8;;;7.9;;
67344;SDS011;54230;52.402;6.276;2024-02-04T17:35:00;14.6;;;6.0;;
67344;SDS011;54230;52.402;6.276;2024-02-04T17:40:00;22.9;;;8.0;;
67344;SDS011;54230;52.402;6.276;2024-02-04T17:45:00;20.7;;;7.2;;
67344;SDS011;54230;52.402;6.276;2024-02-04T17:50:00;18.9;;;6.6;;
67344;SDS011;54230;52.402;6.276;2024-02-04T17:55:00;20.5;;;7.1;;
67344;SDS011;54230;52.402;6.276;2024-02-04T18:00:00;17.9;;;6.3;;
67344;SDS011;54230;52.402;6.276;2024-02-04T18:05:00;19.0;;;6.4;;
67344;SDS011;54230;52.402;6.276;2024-02-04T18:10:00;21.6;;;7.2;;
67344;SDS011;54230;52.402;6.276;2024-02-04T18:15:00;19.4;;;6.6;;
67344;SDS011;54230;52.402;6.276;2024-02-04T18:20:00;17.5;;;6.0;;
67344;SDS011;54230;52.402;6.276;2024-02-04T18:25:00;20.5;;;6.2;;
67344;SDS011;54230;52.402;6.276;2024-02-04T18:30:00;20.2;;;5.9;;
67344;SDS011;54230;52.402;6.276;2024-02-04T18:35:00;17.9;;;5.4;;
67344;SDS011;54230;52.402;6.276;2024-02-04T18:40:00;18.7;;;5.0;;
67344;SDS011;54230;52.402;6.276;2024-02-04T18:45:00;16.2;;;4.9;;
67344;SDS011;54230;52.402;6.276;2024-02-04T18:50:00;15.6;;;4.8;;
67344;SDS011;54230;52.402;6.276;2024-02-04T18:55:00;12.5;;;4.1;;
67344;SDS011;54230;52.402;6.276;2024-02-04T19:00:00;11.6;;;4.2;;
67344;SDS011;54230;52.402;6.276;2024-02-04T19:05:00;13.6;;;4.2;;
67344;SDS011;54230;52.402;6.276;2024-02-04T19:10:00;11.0;;;3.5;;
67344;SDS011;54230;52.402;6.276;2024-02-04T19:15:00;12.3;;;3.3;;
67344;SDS011;54230;52.402;6.276;2024-02-04T19:20:00;10.9;;;3.2;;
67344;SDS011;54230;52.402;6.276;2024-02-04T19:25:00;12.4;;;3.2;;
67344;SDS011;54230;52.402;6.276;2024-02-04T19:30:00;12.0;;;3.3;;
67344;SDS011;54230;52.402;6.276;2024-02-04T19:35:00;9.6;;;3.1;;
67344;SDS011;54230;52.402;6.276;2024-02-04T19:40:00;11.5;;;2.8;;
67344;SDS011;54230;52.402;6.276;2024-02-04T19:45:00;14.1;;;3.2;;
67344;SDS011;54230;52.402;6.276;2024-02-04T19:50:00;11.5;;;3.2;;
67344;SDS011;54230;52.402;6.276;2024-02-04T19:55:00;12.1;;;3.2;;
67344;SDS011;54230;52.402;6.276;2024-02-04T20:00:00;10.9;;;2.9;;
67344;SDS011;54230;52.402;6.276;2024-02-04T20:05:00;13.7;;;3.6;;
67344;SDS011;54230;52.402;6.276;2024-02-04T20:10:00;12.9;;;3.2;;
67344;SDS011;54230;52.402;6.276;2024-02-04T20:15:00;10.5;;;3.2;;
67344;SDS011;54230;52.402;6.276;2024-02-04T20:20:00;14.6;;;3.5;;
67344;SDS011;54230;52.402;6.276;2024-02-04T20:25:00;14.9;;;2.9;;
67344;SDS011;54230;52.402;6.276;2024-02-04T20:30:00;12.7;;;3.2;;
67344;SDS011;54230;52.402;6.276;2024-02-04T20:35:00;11.5;;;3.0;;
67344;SDS011;54230;52.402;6.276;2024-02-04T20:40:00;12.9;;;3.4;;
67344;SDS011;54230;52.402;6.276;2024-02-04T20:45:00;12.8;;;3.3;;
67344;SDS011;54230;52.402;6.276;2024-02-04T20:50:00;10.0;;;3.0;;
67344;SDS011;54230;52.402;6.276;2024-02-04T20:55:00;13.4;;;2.8;;
67344;SDS011;54230;52.402;6.276;2024-02-04T21:00:00;10.7;;;3.0;;
67344;SDS011;54230;52.402;6.276;2024-02-04T21:05:00;14.2;;;2.6;;
67344;SDS011;54230;52.402;6.276;2024-02-04T21:10:00;10.8;;;2.6;;
67344;SDS011;54230;52.402;6.276;2024-02-04T21:15:00;11.3;;;2.9;;
67344;SDS011;54230;52.402;6.276;2024-02-04T21:20:00;9.5;;;2.4;;
67344;SDS011;54230;52.402;6.276;2024-02-04T21:25:00;12.7;;;2.7;;
67344;SDS011;54230;52.402;6.276;2024-02-04T21:30:00;12.3;;;2.7;;
67344;SDS011;54230;52.402;6.276;2024-02-04T21:35:00;14.0;;;3.1;;
67344;SDS011;54230;52.402;6.276;2024-02-04T21:40:00;10.5;;;2.6;;
67344;SDS011;54230;52.402;6.276;2024-02-04T21:45:00;10.9;;;3.1;;
67344;SDS011;54230;52.402;6.276;2024-02-04T21:50:00;10.7;;;2.8;;
67344;SDS011;54230;52.402;6.276;2024-02-04T21:55:00;10.9;;;3.1;;
67344;SDS011;54230;52.402;6.276;2024-02-04T22:00:00;13.3;;;2.7;;
67344;SDS011;54230;52.402;6.276;2024-02-04T22:05:00;10.1;;;2.7;;
67344;SDS011;54230;52.402;6.276;2024-02-04T22:10:00;15.2;;;3.4;;
67344;SDS011;54230;52.402;6.276;2024-02-04T22:15:00;13.3;;;3.0;;
67344;SDS011;54230;52.402;6.276;2024-02-04T22:20:00;11.6;;;2.7;;
67344;SDS011;54230;52.402;6.276;2024-02-04T22:25:00;14.1;;;3.0;;
67344;SDS011;54230;52.402;6.276;2024-02-04T22:30:00;11.3;;;2.8;;
67344;SDS011;54230;52.402;6.276;2024-02-04T22:35:00;13.3;;;3.1;;
67344;SDS011;54230;52.402;6.276;2024-02-04T22:40:00;13.9;;;3.1;;
67344;SDS011;54230;52.402;6.276;2024-02-04T22:45:00;11.6;;;2.6;;
67344;SDS011;54230;52.402;6.276;2024-02-04T22:50:00;11.0;;;2.7;;
67344;SDS011;54230;52.402;6.276;2024-02-04T22:55:00;12.9;;;2.8;;
67344;SDS011;54230;52.402;6.276;2024-02-04T23:00:00;13.2;;;2.5;;
67344;SDS011;54230;52.402;6.276;2024-02-04T23:05:00;10.4;;;2.9;;
67344;SDS011;54230;52.402;6.276;2024-02-04T23:10:00;13.1;;;2.5;;
67344;SDS011;54230;52.402;6.276;2024-02-04T23:15:00;14.0;;;3.0;;
67344;SDS011;54230;52.402;6.276;2024-02-04T23:20:00;10.4;;;2.3;;
67344;SDS011;54230;52.402;6.276;2024-02-04T23:25:00;12.6;;;2.5;;
67344;SDS011;54230;52.402;6.276;2024-02-04T23:30:00;15.9;;;2.7;;
67344;SDS011;54230;52.402;6.276;2024-02-04T23:35:00;11.6;;;3.0;;
67344;SDS011;54230;52.402;6.276;2024-02-04T23:40:00;13.7;;;3.1;;
67344;SDS011;54230;52.402;6.276;2024-02-04T23:45:00;15.9;;;3.5;;
67344;SDS011;54230;52.402;6.276;2024-02-04T23:50:01;12.6;;;3.4;;
67344;SDS011;54230;52.402;6.276;2024-02-04T23:55:00;14.0;;;3.1;;
